sensor_id;sensor_type;location;lat;lon;timestamp;P1;durP1;ratioP1;P2;durP2;ratioP2
20375;SDS011;10347;51.828;6.466;2023-04-19T00:02:23;11.45;;;8.27;;
20375;SDS011;10347;51.828;6.466;2023-04-19T00:04:49;12.73;;;8.48;;
20375;SDS011;10347;51.828;6.466;2023-04-19T00:07:15;11.60;;;8.02;;
20375;SDS011;10347;51.828;6.466;2023-04-19T00:09:42;9.70;;;8.15;;
20375;SDS011;10347;51.828;6.466;2023-04-19T00:12:08;13.23;;;9.02;;
20375;SDS011;10347;51.828;6.466;2023-04-19T00:14:33;10.75;;;8.02;;
20375;SDS011;10347;51.828;6.466;2023-04-19T00:16:59;10.45;;;8.23;;
20375;SDS011;10347;51.828;6.466;2023-04-19T00:19:25;10.52;;;8.07;;
20375;SDS011;10347;51.828;6.466;2023-04-19T00:21:50;9.68;;;7.53;;
20375;SDS011;10347;51.828;6.466;2023-04-19T00:24:16;12.07;;;8.45;;
20375;SDS011;10347;51.828;6.466;2023-04-19T00:26:42;12.80;;;8.75;;
20375;SDS011;10347;51.828;6.466;2023-04-19T00:29:08;11.68;;;7.45;;
20375;SDS011;10347;51.828;6.466;2023-04-19T00:31:34;11.18;;;8.35;;
20375;SDS011;10347;51.828;6.466;2023-04-19T00:33:59;9.00;;;7.35;;
20375;SDS011;10347;51.828;6.466;2023-04-19T00:36:25;9.43;;;7.13;;
20375;SDS011;10347;51.828;6.466;2023-04-19T00:38:51;8.98;;;6.78;;
20375;SDS011;10347;51.828;6.466;2023-04-19T00:41:16;10.13;;;6.97;;
20375;SDS011;10347;51.828;6.466;2023-04-19T00:43:42;11.18;;;7.10;;
20375;SDS011;10347;51.828;6.466;2023-04-19T00:46:08;12.18;;;8.88;;
20375;SDS011;10347;51.828;6.466;2023-04-19T00:48:34;11.40;;;8.63;;
20375;SDS011;10347;51.828;6.466;2023-04-19T00:51:03;11.10;;;8.48;;
20375;SDS011;10347;51.828;6.466;2023-04-19T00:53:29;10.90;;;8.18;;
20375;SDS011;10347;51.828;6.466;2023-04-19T00:55:54;13.10;;;9.20;;
20375;SDS011;10347;51.828;6.466;2023-04-19T00:58:23;11.82;;;7.93;;
20375;SDS011;10347;51.828;6.466;2023-04-19T01:00:49;10.75;;;7.38;;
20375;SDS011;10347;51.828;6.466;2023-04-19T01:03:16;8.73;;;7.25;;
20375;SDS011;10347;51.828;6.466;2023-04-19T01:05:41;9.95;;;8.25;;
20375;SDS011;10347;51.828;6.466;2023-04-19T01:08:07;10.50;;;8.05;;
20375;SDS011;10347;51.828;6.466;2023-04-19T01:10:33;9.73;;;7.47;;
20375;SDS011;10347;51.828;6.466;2023-04-19T01:12:58;11.57;;;7.40;;
20375;SDS011;10347;51.828;6.466;2023-04-19T01:15:24;10.73;;;7.63;;
20375;SDS011;10347;51.828;6.466;2023-04-19T01:17:50;11.70;;;8.68;;
20375;SDS011;10347;51.828;6.466;2023-04-19T01:20:15;14.70;;;8.63;;
20375;SDS011;10347;51.828;6.466;2023-04-19T01:22:41;12.23;;;7.85;;
20375;SDS011;10347;51.828;6.466;2023-04-19T01:25:07;10.48;;;7.38;;
20375;SDS011;10347;51.828;6.466;2023-04-19T01:27:33;10.50;;;8.07;;
20375;SDS011;10347;51.828;6.466;2023-04-19T01:30:01;8.98;;;7.00;;
20375;SDS011;10347;51.828;6.466;2023-04-19T01:32:27;7.95;;;6.68;;
20375;SDS011;10347;51.828;6.466;2023-04-19T01:34:53;12.80;;;9.00;;
20375;SDS011;10347;51.828;6.466;2023-04-19T01:37:18;8.60;;;7.55;;
20375;SDS011;10347;51.828;6.466;2023-04-19T01:39:44;10.50;;;7.80;;
20375;SDS011;10347;51.828;6.466;2023-04-19T01:42:09;10.20;;;7.97;;
20375;SDS011;10347;51.828;6.466;2023-04-19T01:44:35;10.77;;;8.05;;
20375;SDS011;10347;51.828;6.466;2023-04-19T01:47:01;12.52;;;7.28;;
20375;SDS011;10347;51.828;6.466;2023-04-19T01:49:26;9.45;;;7.40;;
20375;SDS011;10347;51.828;6.466;2023-04-19T01:51:52;12.38;;;7.90;;
20375;SDS011;10347;51.828;6.466;2023-04-19T01:54:17;10.35;;;7.88;;
20375;SDS011;10347;51.828;6.466;2023-04-19T01:56:43;10.63;;;8.00;;
20375;SDS011;10347;51.828;6.466;2023-04-19T01:59:08;8.95;;;7.05;;
20375;SDS011;10347;51.828;6.466;2023-04-19T02:01:34;12.15;;;7.82;;
20375;SDS011;10347;51.828;6.466;2023-04-19T02:04:01;9.27;;;7.45;;
20375;SDS011;10347;51.828;6.466;2023-04-19T02:06:27;9.55;;;7.10;;
20375;SDS011;10347;51.828;6.466;2023-04-19T02:08:52;10.45;;;7.95;;
20375;SDS011;10347;51.828;6.466;2023-04-19T02:11:18;13.50;;;7.93;;
20375;SDS011;10347;51.828;6.466;2023-04-19T02:13:43;10.57;;;7.25;;
20375;SDS011;10347;51.828;6.466;2023-04-19T02:16:09;8.30;;;7.07;;
20375;SDS011;10347;51.828;6.466;2023-04-19T02:18:35;9.63;;;7.03;;
20375;SDS011;10347;51.828;6.466;2023-04-19T02:21:04;13.77;;;7.57;;
20375;SDS011;10347;51.828;6.466;2023-04-19T02:23:31;12.60;;;7.38;;
20375;SDS011;10347;51.828;6.466;2023-04-19T02:25:56;12.15;;;7.18;;
20375;SDS011;10347;51.828;6.466;2023-04-19T02:28:22;8.32;;;7.03;;
20375;SDS011;10347;51.828;6.466;2023-04-19T02:30:47;10.55;;;7.25;;
20375;SDS011;10347;51.828;6.466;2023-04-19T02:33:13;7.72;;;6.55;;
20375;SDS011;10347;51.828;6.466;2023-04-19T02:35:39;10.90;;;6.85;;
20375;SDS011;10347;51.828;6.466;2023-04-19T02:38:05;11.82;;;7.10;;
20375;SDS011;10347;51.828;6.466;2023-04-19T02:40:30;8.23;;;6.00;;
20375;SDS011;10347;51.828;6.466;2023-04-19T02:42:56;8.95;;;6.80;;
20375;SDS011;10347;51.828;6.466;2023-04-19T02:45:21;6.65;;;5.75;;
20375;SDS011;10347;51.828;6.466;2023-04-19T02:47:47;10.50;;;6.53;;
20375;SDS011;10347;51.828;6.466;2023-04-19T02:50:13;8.45;;;6.05;;
20375;SDS011;10347;51.828;6.466;2023-04-19T02:52:40;9.68;;;6.20;;
20375;SDS011;10347;51.828;6.466;2023-04-19T02:55:05;7.13;;;5.65;;
20375;SDS011;10347;51.828;6.466;2023-04-19T02:57:31;8.35;;;6.18;;
20375;SDS011;10347;51.828;6.466;2023-04-19T02:59:57;6.75;;;5.47;;
20375;SDS011;10347;51.828;6.466;2023-04-19T03:02:23;7.75;;;6.00;;
20375;SDS011;10347;51.828;6.466;2023-04-19T03:04:49;8.65;;;5.82;;
20375;SDS011;10347;51.828;6.466;2023-04-19T03:07:15;7.18;;;5.55;;
20375;SDS011;10347;51.828;6.466;2023-04-19T03:09:41;8.38;;;5.72;;
20375;SDS011;10347;51.828;6.466;2023-04-19T03:12:06;8.50;;;6.10;;
20375;SDS011;10347;51.828;6.466;2023-04-19T03:14:32;7.68;;;5.80;;
20375;SDS011;10347;51.828;6.466;2023-04-19T03:16:58;7.63;;;5.45;;
20375;SDS011;10347;51.828;6.466;2023-04-19T03:19:24;5.82;;;5.07;;
20375;SDS011;10347;51.828;6.466;2023-04-19T03:21:49;6.65;;;5.35;;
20375;SDS011;10347;51.828;6.466;2023-04-19T03:24:17;12.27;;;5.93;;
20375;SDS011;10347;51.828;6.466;2023-04-19T03:26:43;6.18;;;5.30;;
20375;SDS011;10347;51.828;6.466;2023-04-19T03:29:08;5.38;;;4.88;;
20375;SDS011;10347;51.828;6.466;2023-04-19T03:31:34;6.32;;;5.25;;
20375;SDS011;10347;51.828;6.466;2023-04-19T03:34:00;7.00;;;5.55;;
20375;SDS011;10347;51.828;6.466;2023-04-19T03:36:25;7.00;;;5.68;;
20375;SDS011;10347;51.828;6.466;2023-04-19T03:38:51;6.75;;;5.68;;
20375;SDS011;10347;51.828;6.466;2023-04-19T03:41:20;5.50;;;4.60;;
20375;SDS011;10347;51.828;6.466;2023-04-19T03:43:47;5.40;;;4.90;;
20375;SDS011;10347;51.828;6.466;2023-04-19T03:46:14;6.22;;;5.15;;
20375;SDS011;10347;51.828;6.466;2023-04-19T03:48:39;7.40;;;5.38;;
20375;SDS011;10347;51.828;6.466;2023-04-19T03:51:05;7.10;;;5.70;;
20375;SDS011;10347;51.828;6.466;2023-04-19T03:53:31;6.55;;;5.38;;
20375;SDS011;10347;51.828;6.466;2023-04-19T03:55:56;7.85;;;5.53;;
20375;SDS011;10347;51.828;6.466;2023-04-19T03:58:22;6.38;;;4.63;;
20375;SDS011;10347;51.828;6.466;2023-04-19T04:00:47;6.43;;;4.97;;
20375;SDS011;10347;51.828;6.466;2023-04-19T04:03:13;6.80;;;5.40;;
20375;SDS011;10347;51.828;6.466;2023-04-19T04:05:39;8.85;;;5.38;;
20375;SDS011;10347;51.828;6.466;2023-04-19T04:08:04;5.40;;;4.90;;
20375;SDS011;10347;51.828;6.466;2023-04-19T04:10:30;8.25;;;5.70;;
20375;SDS011;10347;51.828;6.466;2023-04-19T04:12:55;7.20;;;5.25;;
20375;SDS011;10347;51.828;6.466;2023-04-19T04:15:21;5.80;;;5.20;;
20375;SDS011;10347;51.828;6.466;2023-04-19T04:17:46;7.40;;;5.43;;
20375;SDS011;10347;51.828;6.466;2023-04-19T04:20:12;6.05;;;5.13;;
20375;SDS011;10347;51.828;6.466;2023-04-19T04:22:41;8.57;;;5.72;;
20375;SDS011;10347;51.828;6.466;2023-04-19T04:25:07;10.82;;;7.35;;
20375;SDS011;10347;51.828;6.466;2023-04-19T04:27:33;10.18;;;6.20;;
20375;SDS011;10347;51.828;6.466;2023-04-19T04:29:59;7.57;;;5.88;;
20375;SDS011;10347;51.828;6.466;2023-04-19T04:32:25;8.35;;;5.97;;
20375;SDS011;10347;51.828;6.466;2023-04-19T04:34:51;7.40;;;5.57;;
20375;SDS011;10347;51.828;6.466;2023-04-19T04:37:17;7.25;;;5.60;;
20375;SDS011;10347;51.828;6.466;2023-04-19T04:39:42;8.10;;;5.43;;
20375;SDS011;10347;51.828;6.466;2023-04-19T04:42:08;7.22;;;5.55;;
20375;SDS011;10347;51.828;6.466;2023-04-19T04:44:34;6.47;;;5.40;;
20375;SDS011;10347;51.828;6.466;2023-04-19T04:47:00;6.72;;;5.15;;
20375;SDS011;10347;51.828;6.466;2023-04-19T04:49:26;7.72;;;5.40;;
20375;SDS011;10347;51.828;6.466;2023-04-19T04:51:51;6.82;;;5.45;;
20375;SDS011;10347;51.828;6.466;2023-04-19T04:54:17;6.45;;;5.63;;
20375;SDS011;10347;51.828;6.466;2023-04-19T04:56:42;7.07;;;5.05;;
20375;SDS011;10347;51.828;6.466;2023-04-19T04:59:08;6.88;;;4.75;;
20375;SDS011;10347;51.828;6.466;2023-04-19T05:01:33;10.75;;;5.60;;
20375;SDS011;10347;51.828;6.466;2023-04-19T05:03:59;7.60;;;5.10;;
20375;SDS011;10347;51.828;6.466;2023-04-19T05:06:25;6.95;;;5.05;;
20375;SDS011;10347;51.828;6.466;2023-04-19T05:08:51;7.47;;;4.97;;
20375;SDS011;10347;51.828;6.466;2023-04-19T05:11:16;5.85;;;4.75;;
20375;SDS011;10347;51.828;6.466;2023-04-19T05:13:42;6.88;;;4.85;;
20375;SDS011;10347;51.828;6.466;2023-04-19T05:16:07;5.72;;;5.07;;
20375;SDS011;10347;51.828;6.466;2023-04-19T05:18:33;5.97;;;4.75;;
20375;SDS011;10347;51.828;6.466;2023-04-19T05:20:59;7.82;;;5.60;;
20375;SDS011;10347;51.828;6.466;2023-04-19T05:23:24;7.43;;;4.80;;
20375;SDS011;10347;51.828;6.466;2023-04-19T05:25:50;6.75;;;5.15;;
20375;SDS011;10347;51.828;6.466;2023-04-19T05:28:15;5.15;;;4.63;;
20375;SDS011;10347;51.828;6.466;2023-04-19T05:30:41;7.25;;;4.88;;
20375;SDS011;10347;51.828;6.466;2023-04-19T05:33:06;7.05;;;5.00;;
20375;SDS011;10347;51.828;6.466;2023-04-19T05:35:32;7.95;;;4.95;;
20375;SDS011;10347;51.828;6.466;2023-04-19T05:37:57;7.65;;;4.60;;
20375;SDS011;10347;51.828;6.466;2023-04-19T05:40:23;6.45;;;4.32;;
20375;SDS011;10347;51.828;6.466;2023-04-19T05:42:49;8.35;;;4.82;;
20375;SDS011;10347;51.828;6.466;2023-04-19T05:45:15;6.22;;;4.60;;
20375;SDS011;10347;51.828;6.466;2023-04-19T05:47:42;4.70;;;4.22;;
20375;SDS011;10347;51.828;6.466;2023-04-19T05:50:08;6.78;;;4.50;;
20375;SDS011;10347;51.828;6.466;2023-04-19T05:52:34;7.53;;;4.53;;
20375;SDS011;10347;51.828;6.466;2023-04-19T05:54:59;5.07;;;4.22;;
20375;SDS011;10347;51.828;6.466;2023-04-19T05:57:25;6.03;;;4.32;;
20375;SDS011;10347;51.828;6.466;2023-04-19T05:59:51;6.80;;;5.03;;
20375;SDS011;10347;51.828;6.466;2023-04-19T06:02:16;5.57;;;4.38;;
20375;SDS011;10347;51.828;6.466;2023-04-19T06:04:42;5.25;;;4.00;;
20375;SDS011;10347;51.828;6.466;2023-04-19T06:07:07;5.97;;;4.25;;
20375;SDS011;10347;51.828;6.466;2023-04-19T06:09:33;5.65;;;3.92;;
20375;SDS011;10347;51.828;6.466;2023-04-19T06:11:59;7.63;;;4.22;;
20375;SDS011;10347;51.828;6.466;2023-04-19T06:14:26;4.68;;;3.85;;
20375;SDS011;10347;51.828;6.466;2023-04-19T06:16:53;4.43;;;3.50;;
20375;SDS011;10347;51.828;6.466;2023-04-19T06:19:18;3.83;;;3.33;;
20375;SDS011;10347;51.828;6.466;2023-04-19T06:21:45;5.85;;;3.33;;
20375;SDS011;10347;51.828;6.466;2023-04-19T06:24:11;6.03;;;3.78;;
20375;SDS011;10347;51.828;6.466;2023-04-19T06:26:37;5.82;;;3.88;;
20375;SDS011;10347;51.828;6.466;2023-04-19T06:29:02;4.60;;;3.20;;
20375;SDS011;10347;51.828;6.466;2023-04-19T06:31:28;4.88;;;3.75;;
20375;SDS011;10347;51.828;6.466;2023-04-19T06:33:54;4.28;;;3.60;;
20375;SDS011;10347;51.828;6.466;2023-04-19T06:36:19;5.38;;;3.45;;
20375;SDS011;10347;51.828;6.466;2023-04-19T06:38:45;6.85;;;3.50;;
20375;SDS011;10347;51.828;6.466;2023-04-19T06:41:11;6.28;;;3.72;;
20375;SDS011;10347;51.828;6.466;2023-04-19T06:43:36;5.05;;;3.47;;
20375;SDS011;10347;51.828;6.466;2023-04-19T06:46:04;4.53;;;3.70;;
20375;SDS011;10347;51.828;6.466;2023-04-19T06:48:30;6.15;;;3.80;;
20375;SDS011;10347;51.828;6.466;2023-04-19T06:50:56;4.43;;;3.47;;
20375;SDS011;10347;51.828;6.466;2023-04-19T06:53:21;5.22;;;3.35;;
20375;SDS011;10347;51.828;6.466;2023-04-19T06:55:47;3.92;;;3.05;;
20375;SDS011;10347;51.828;6.466;2023-04-19T06:58:13;3.20;;;2.85;;
20375;SDS011;10347;51.828;6.466;2023-04-19T07:00:38;6.00;;;3.20;;
20375;SDS011;10347;51.828;6.466;2023-04-19T07:03:04;3.97;;;2.97;;
20375;SDS011;10347;51.828;6.466;2023-04-19T07:05:30;6.28;;;3.38;;
20375;SDS011;10347;51.828;6.466;2023-04-19T07:07:56;5.75;;;3.55;;
20375;SDS011;10347;51.828;6.466;2023-04-19T07:10:21;3.40;;;3.03;;
20375;SDS011;10347;51.828;6.466;2023-04-19T07:12:47;3.30;;;3.00;;
20375;SDS011;10347;51.828;6.466;2023-04-19T07:15:13;3.63;;;2.83;;
20375;SDS011;10347;51.828;6.466;2023-04-19T07:17:38;5.30;;;3.30;;
20375;SDS011;10347;51.828;6.466;2023-04-19T07:20:04;6.15;;;2.78;;
20375;SDS011;10347;51.828;6.466;2023-04-19T07:22:31;2.65;;;2.45;;
20375;SDS011;10347;51.828;6.466;2023-04-19T07:24:57;6.03;;;3.20;;
20375;SDS011;10347;51.828;6.466;2023-04-19T07:27:22;3.47;;;3.03;;
20375;SDS011;10347;51.828;6.466;2023-04-19T07:29:48;7.95;;;3.17;;
20375;SDS011;10347;51.828;6.466;2023-04-19T07:32:14;5.25;;;3.28;;
20375;SDS011;10347;51.828;6.466;2023-04-19T07:34:40;3.38;;;3.08;;
20375;SDS011;10347;51.828;6.466;2023-04-19T07:37:06;5.18;;;3.00;;
20375;SDS011;10347;51.828;6.466;2023-04-19T07:39:32;4.13;;;3.00;;
20375;SDS011;10347;51.828;6.466;2023-04-19T07:41:58;4.05;;;3.35;;
20375;SDS011;10347;51.828;6.466;2023-04-19T07:44:25;4.57;;;3.30;;
20375;SDS011;10347;51.828;6.466;2023-04-19T07:46:51;4.85;;;2.90;;
20375;SDS011;10347;51.828;6.466;2023-04-19T07:49:16;4.07;;;3.20;;
20375;SDS011;10347;51.828;6.466;2023-04-19T07:51:42;5.18;;;3.13;;
20375;SDS011;10347;51.828;6.466;2023-04-19T07:54:07;3.13;;;2.85;;
20375;SDS011;10347;51.828;6.466;2023-04-19T07:56:34;3.67;;;3.03;;
20375;SDS011;10347;51.828;6.466;2023-04-19T07:59:00;6.00;;;3.13;;
20375;SDS011;10347;51.828;6.466;2023-04-19T08:01:25;2.95;;;2.75;;
20375;SDS011;10347;51.828;6.466;2023-04-19T08:03:51;4.18;;;2.83;;
20375;SDS011;10347;51.828;6.466;2023-04-19T08:06:16;4.20;;;2.67;;
20375;SDS011;10347;51.828;6.466;2023-04-19T08:08:42;4.25;;;3.15;;
20375;SDS011;10347;51.828;6.466;2023-04-19T08:11:07;3.25;;;2.72;;
20375;SDS011;10347;51.828;6.466;2023-04-19T08:13:33;5.57;;;2.72;;
20375;SDS011;10347;51.828;6.466;2023-04-19T08:15:58;3.97;;;2.80;;
20375;SDS011;10347;51.828;6.466;2023-04-19T08:18:24;3.55;;;2.70;;
20375;SDS011;10347;51.828;6.466;2023-04-19T08:20:50;5.35;;;2.50;;
20375;SDS011;10347;51.828;6.466;2023-04-19T08:23:16;3.28;;;2.30;;
20375;SDS011;10347;51.828;6.466;2023-04-19T08:25:41;2.60;;;2.40;;
20375;SDS011;10347;51.828;6.466;2023-04-19T08:28:07;2.70;;;2.30;;
20375;SDS011;10347;51.828;6.466;2023-04-19T08:30:33;2.33;;;2.13;;
20375;SDS011;10347;51.828;6.466;2023-04-19T08:32:58;3.67;;;2.65;;
20375;SDS011;10347;51.828;6.466;2023-04-19T08:35:25;4.25;;;2.63;;
20375;SDS011;10347;51.828;6.466;2023-04-19T08:37:50;2.67;;;2.17;;
20375;SDS011;10347;51.828;6.466;2023-04-19T08:40:16;2.08;;;1.90;;
20375;SDS011;10347;51.828;6.466;2023-04-19T08:42:42;2.45;;;2.13;;
20375;SDS011;10347;51.828;6.466;2023-04-19T08:45:08;2.55;;;2.28;;
20375;SDS011;10347;51.828;6.466;2023-04-19T08:47:37;2.63;;;2.40;;
20375;SDS011;10347;51.828;6.466;2023-04-19T08:50:05;2.30;;;2.10;;
20375;SDS011;10347;51.828;6.466;2023-04-19T08:52:34;3.88;;;2.20;;
20375;SDS011;10347;51.828;6.466;2023-04-19T08:55:04;4.18;;;1.90;;
20375;SDS011;10347;51.828;6.466;2023-04-19T08:57:31;6.60;;;2.08;;
20375;SDS011;10347;51.828;6.466;2023-04-19T08:59:57;2.33;;;2.13;;
20375;SDS011;10347;51.828;6.466;2023-04-19T09:02:23;3.30;;;1.90;;
20375;SDS011;10347;51.828;6.466;2023-04-19T09:04:49;3.08;;;2.13;;
20375;SDS011;10347;51.828;6.466;2023-04-19T09:07:24;2.55;;;1.80;;
20375;SDS011;10347;51.828;6.466;2023-04-19T09:10:04;3.58;;;2.60;;
20375;SDS011;10347;51.828;6.466;2023-04-19T09:12:34;2.38;;;2.25;;
20375;SDS011;10347;51.828;6.466;2023-04-19T09:15:01;4.28;;;2.60;;
20375;SDS011;10347;51.828;6.466;2023-04-19T09:17:32;2.75;;;2.30;;
20375;SDS011;10347;51.828;6.466;2023-04-19T09:19:58;2.67;;;2.47;;
20375;SDS011;10347;51.828;6.466;2023-04-19T09:22:24;2.72;;;2.47;;
20375;SDS011;10347;51.828;6.466;2023-04-19T09:24:50;2.30;;;2.10;;
20375;SDS011;10347;51.828;6.466;2023-04-19T09:27:24;3.25;;;2.10;;
20375;SDS011;10347;51.828;6.466;2023-04-19T09:29:52;2.33;;;2.20;;
20375;SDS011;10347;51.828;6.466;2023-04-19T09:32:19;3.53;;;2.30;;
20375;SDS011;10347;51.828;6.466;2023-04-19T09:34:51;2.42;;;2.20;;
20375;SDS011;10347;51.828;6.466;2023-04-19T09:37:26;2.15;;;1.98;;
20375;SDS011;10347;51.828;6.466;2023-04-19T09:39:52;6.07;;;1.90;;
20375;SDS011;10347;51.828;6.466;2023-04-19T09:42:18;2.72;;;2.40;;
20375;SDS011;10347;51.828;6.466;2023-04-19T09:44:54;4.40;;;2.00;;
20375;SDS011;10347;51.828;6.466;2023-04-19T09:47:26;2.35;;;1.95;;
20375;SDS011;10347;51.828;6.466;2023-04-19T09:50:09;4.03;;;2.20;;
20375;SDS011;10347;51.828;6.466;2023-04-19T09:52:36;4.03;;;2.08;;
20375;SDS011;10347;51.828;6.466;2023-04-19T09:55:02;2.40;;;2.17;;
20375;SDS011;10347;51.828;6.466;2023-04-19T09:57:30;2.08;;;1.90;;
20375;SDS011;10347;51.828;6.466;2023-04-19T09:59:57;3.70;;;2.00;;
20375;SDS011;10347;51.828;6.466;2023-04-19T10:02:23;3.58;;;2.05;;
20375;SDS011;10347;51.828;6.466;2023-04-19T10:04:54;2.53;;;2.10;;
20375;SDS011;10347;51.828;6.466;2023-04-19T10:07:21;2.63;;;2.38;;
20375;SDS011;10347;51.828;6.466;2023-04-19T10:09:48;7.97;;;2.10;;
20375;SDS011;10347;51.828;6.466;2023-04-19T10:12:15;2.10;;;1.90;;
20375;SDS011;10347;51.828;6.466;2023-04-19T10:14:41;2.15;;;1.70;;
20375;SDS011;10347;51.828;6.466;2023-04-19T10:17:07;2.47;;;1.83;;
20375;SDS011;10347;51.828;6.466;2023-04-19T10:19:33;4.03;;;2.42;;
20375;SDS011;10347;51.828;6.466;2023-04-19T10:22:01;2.47;;;2.28;;
20375;SDS011;10347;51.828;6.466;2023-04-19T10:24:31;3.08;;;2.30;;
20375;SDS011;10347;51.828;6.466;2023-04-19T10:27:07;2.22;;;2.03;;
20375;SDS011;10347;51.828;6.466;2023-04-19T10:32:26;4.90;;;2.38;;
20375;SDS011;10347;51.828;6.466;2023-04-19T10:34:53;2.22;;;1.90;;
20375;SDS011;10347;51.828;6.466;2023-04-19T10:37:23;3.58;;;2.30;;
20375;SDS011;10347;51.828;6.466;2023-04-19T10:39:50;4.88;;;2.38;;
20375;SDS011;10347;51.828;6.466;2023-04-19T10:42:16;7.03;;;2.40;;
20375;SDS011;10347;51.828;6.466;2023-04-19T10:44:45;2.38;;;1.73;;
20375;SDS011;10347;51.828;6.466;2023-04-19T10:47:46;2.78;;;2.30;;
20375;SDS011;10347;51.828;6.466;2023-04-19T10:50:16;1.90;;;1.80;;
20375;SDS011;10347;51.828;6.466;2023-04-19T10:52:41;5.43;;;2.85;;
20375;SDS011;10347;51.828;6.466;2023-04-19T10:55:07;4.70;;;2.63;;
20375;SDS011;10347;51.828;6.466;2023-04-19T11:00:30;4.35;;;2.40;;
20375;SDS011;10347;51.828;6.466;2023-04-19T11:02:57;5.82;;;2.20;;
20375;SDS011;10347;51.828;6.466;2023-04-19T11:05:24;3.13;;;2.10;;
20375;SDS011;10347;51.828;6.466;2023-04-19T11:07:50;3.85;;;2.15;;
20375;SDS011;10347;51.828;6.466;2023-04-19T11:10:26;2.45;;;2.25;;
20375;SDS011;10347;51.828;6.466;2023-04-19T11:12:54;2.35;;;2.15;;
20375;SDS011;10347;51.828;6.466;2023-04-19T11:15:21;3.50;;;2.30;;
20375;SDS011;10347;51.828;6.466;2023-04-19T11:17:51;2.75;;;2.33;;
20375;SDS011;10347;51.828;6.466;2023-04-19T11:20:16;4.43;;;2.40;;
20375;SDS011;10347;51.828;6.466;2023-04-19T11:22:45;1.83;;;1.73;;
20375;SDS011;10347;51.828;6.466;2023-04-19T11:25:12;2.63;;;2.42;;
20375;SDS011;10347;51.828;6.466;2023-04-19T11:27:40;3.28;;;2.42;;
20375;SDS011;10347;51.828;6.466;2023-04-19T11:30:08;2.97;;;2.25;;
20375;SDS011;10347;51.828;6.466;2023-04-19T11:32:46;2.55;;;2.17;;
20375;SDS011;10347;51.828;6.466;2023-04-19T11:35:12;2.88;;;2.50;;
20375;SDS011;10347;51.828;6.466;2023-04-19T11:37:39;2.80;;;2.20;;
20375;SDS011;10347;51.828;6.466;2023-04-19T11:40:04;2.55;;;2.30;;
20375;SDS011;10347;51.828;6.466;2023-04-19T11:42:31;4.15;;;2.38;;
20375;SDS011;10347;51.828;6.466;2023-04-19T11:44:57;5.82;;;2.38;;
20375;SDS011;10347;51.828;6.466;2023-04-19T11:47:24;2.47;;;2.03;;
20375;SDS011;10347;51.828;6.466;2023-04-19T11:49:50;3.20;;;2.10;;
20375;SDS011;10347;51.828;6.466;2023-04-19T11:52:20;5.15;;;2.53;;
20375;SDS011;10347;51.828;6.466;2023-04-19T11:54:47;2.47;;;2.22;;
20375;SDS011;10347;51.828;6.466;2023-04-19T11:57:13;4.13;;;2.25;;
20375;SDS011;10347;51.828;6.466;2023-04-19T11:59:38;6.38;;;2.28;;
20375;SDS011;10347;51.828;6.466;2023-04-19T12:02:35;2.45;;;2.25;;
20375;SDS011;10347;51.828;6.466;2023-04-19T12:05:12;2.78;;;2.30;;
20375;SDS011;10347;51.828;6.466;2023-04-19T12:10:28;5.18;;;2.28;;
20375;SDS011;10347;51.828;6.466;2023-04-19T12:12:55;2.40;;;2.03;;
20375;SDS011;10347;51.828;6.466;2023-04-19T12:15:20;3.83;;;2.50;;
20375;SDS011;10347;51.828;6.466;2023-04-19T12:17:59;2.85;;;2.08;;
20375;SDS011;10347;51.828;6.466;2023-04-19T12:22:58;2.58;;;1.92;;
20375;SDS011;10347;51.828;6.466;2023-04-19T12:25:28;3.22;;;2.13;;
20375;SDS011;10347;51.828;6.466;2023-04-19T12:27:58;2.63;;;2.30;;
20375;SDS011;10347;51.828;6.466;2023-04-19T12:30:24;3.45;;;2.05;;
20375;SDS011;10347;51.828;6.466;2023-04-19T12:32:50;2.60;;;2.40;;
20375;SDS011;10347;51.828;6.466;2023-04-19T12:35:19;2.70;;;2.50;;
20375;SDS011;10347;51.828;6.466;2023-04-19T12:37:52;2.33;;;2.20;;
20375;SDS011;10347;51.828;6.466;2023-04-19T12:40:18;2.20;;;2.10;;
20375;SDS011;10347;51.828;6.466;2023-04-19T12:42:44;3.45;;;2.25;;
20375;SDS011;10347;51.828;6.466;2023-04-19T12:45:11;3.10;;;2.50;;
20375;SDS011;10347;51.828;6.466;2023-04-19T12:47:37;5.60;;;3.13;;
20375;SDS011;10347;51.828;6.466;2023-04-19T12:50:03;3.30;;;2.80;;
20375;SDS011;10347;51.828;6.466;2023-04-19T12:52:30;2.58;;;2.38;;
20375;SDS011;10347;51.828;6.466;2023-04-19T12:54:55;3.58;;;2.42;;
20375;SDS011;10347;51.828;6.466;2023-04-19T12:57:21;2.40;;;2.20;;
20375;SDS011;10347;51.828;6.466;2023-04-19T12:59:46;2.90;;;2.63;;
20375;SDS011;10347;51.828;6.466;2023-04-19T13:02:12;3.17;;;2.72;;
20375;SDS011;10347;51.828;6.466;2023-04-19T13:04:37;4.63;;;3.53;;
20375;SDS011;10347;51.828;6.466;2023-04-19T13:07:03;4.32;;;2.97;;
20375;SDS011;10347;51.828;6.466;2023-04-19T13:09:29;2.95;;;2.60;;
20375;SDS011;10347;51.828;6.466;2023-04-19T13:11:54;5.35;;;3.00;;
20375;SDS011;10347;51.828;6.466;2023-04-19T13:14:20;5.82;;;3.30;;
20375;SDS011;10347;51.828;6.466;2023-04-19T13:16:45;2.97;;;2.78;;
20375;SDS011;10347;51.828;6.466;2023-04-19T13:19:11;3.25;;;2.60;;
20375;SDS011;10347;51.828;6.466;2023-04-19T13:21:37;3.95;;;2.80;;
20375;SDS011;10347;51.828;6.466;2023-04-19T13:24:02;4.22;;;2.92;;
20375;SDS011;10347;51.828;6.466;2023-04-19T13:26:28;3.47;;;2.67;;
20375;SDS011;10347;51.828;6.466;2023-04-19T13:28:53;3.13;;;2.78;;
20375;SDS011;10347;51.828;6.466;2023-04-19T13:31:20;7.15;;;3.03;;
20375;SDS011;10347;51.828;6.466;2023-04-19T13:33:45;2.92;;;2.67;;
20375;SDS011;10347;51.828;6.466;2023-04-19T13:36:11;3.92;;;2.55;;
20375;SDS011;10347;51.828;6.466;2023-04-19T13:38:37;9.77;;;2.80;;
20375;SDS011;10347;51.828;6.466;2023-04-19T13:41:02;2.63;;;2.42;;
20375;SDS011;10347;51.828;6.466;2023-04-19T13:43:28;4.45;;;2.80;;
20375;SDS011;10347;51.828;6.466;2023-04-19T13:45:54;3.92;;;2.58;;
20375;SDS011;10347;51.828;6.466;2023-04-19T13:48:19;2.92;;;2.63;;
20375;SDS011;10347;51.828;6.466;2023-04-19T13:50:45;6.13;;;3.40;;
20375;SDS011;10347;51.828;6.466;2023-04-19T13:53:11;5.75;;;2.75;;
20375;SDS011;10347;51.828;6.466;2023-04-19T13:55:36;3.25;;;2.33;;
20375;SDS011;10347;51.828;6.466;2023-04-19T13:58:02;5.90;;;2.90;;
20375;SDS011;10347;51.828;6.466;2023-04-19T14:00:27;3.83;;;2.90;;
20375;SDS011;10347;51.828;6.466;2023-04-19T14:02:53;4.97;;;3.50;;
20375;SDS011;10347;51.828;6.466;2023-04-19T14:05:20;3.53;;;3.15;;
20375;SDS011;10347;51.828;6.466;2023-04-19T14:07:46;5.55;;;3.30;;
20375;SDS011;10347;51.828;6.466;2023-04-19T14:10:11;5.82;;;3.33;;
20375;SDS011;10347;51.828;6.466;2023-04-19T14:12:37;4.25;;;3.03;;
20375;SDS011;10347;51.828;6.466;2023-04-19T14:15:03;5.57;;;3.53;;
20375;SDS011;10347;51.828;6.466;2023-04-19T14:17:28;3.17;;;2.90;;
20375;SDS011;10347;51.828;6.466;2023-04-19T14:19:54;4.22;;;3.25;;
20375;SDS011;10347;51.828;6.466;2023-04-19T14:22:20;5.22;;;3.75;;
20375;SDS011;10347;51.828;6.466;2023-04-19T14:24:46;3.25;;;2.95;;
20375;SDS011;10347;51.828;6.466;2023-04-19T14:27:11;3.05;;;2.72;;
20375;SDS011;10347;51.828;6.466;2023-04-19T14:29:37;3.75;;;3.30;;
20375;SDS011;10347;51.828;6.466;2023-04-19T14:32:03;4.75;;;3.08;;
20375;SDS011;10347;51.828;6.466;2023-04-19T14:34:29;4.63;;;3.33;;
20375;SDS011;10347;51.828;6.466;2023-04-19T14:36:55;4.03;;;2.90;;
20375;SDS011;10347;51.828;6.466;2023-04-19T14:39:20;5.82;;;3.95;;
20375;SDS011;10347;51.828;6.466;2023-04-19T14:41:46;5.22;;;3.58;;
20375;SDS011;10347;51.828;6.466;2023-04-19T14:44:11;4.03;;;3.40;;
20375;SDS011;10347;51.828;6.466;2023-04-19T14:46:37;5.93;;;3.30;;
20375;SDS011;10347;51.828;6.466;2023-04-19T14:49:02;4.35;;;2.75;;
20375;SDS011;10347;51.828;6.466;2023-04-19T14:51:30;3.85;;;2.42;;
20375;SDS011;10347;51.828;6.466;2023-04-19T14:53:58;2.80;;;2.60;;